Time;durP1;ratioP1;P1;durP2;ratioP2;P2;SDS_P1;SDS_P2;PMS_P1;PMS_P2;Temp;Humidity;BMP_temperature;BMP_pressure;BME280_temperature;BME280_humidity;BME280_pressure;Samples;Min_cycle;Max_cycle;Signal;HPM_P1;HPM_P2
2021/08/24 00:00:27;;;;;;;3.63;2.30;;;21.30;78.90;;;;;;5031834;28;20053;-60
2021/08/24 00:02:53;;;;;;;6.65;3.15;;;21.30;78.90;;;;;;5018190;28;20040;-59
2021/08/24 00:05:22;;;;;;;5.70;3.42;;;21.30;79.00;;;;;;5053863;28;20047;-59
2021/08/24 00:07:48;;;;;;;6.57;2.72;;;21.30;79.00;;;;;;5027877;28;20174;-60
2021/08/24 00:10:13;;;;;;;4.57;2.70;;;21.30;79.10;;;;;;5065757;28;20155;-59
2021/08/24 00:12:39;;;;;;;4.47;2.63;;;21.30;79.10;;;;;;5023055;28;20020;-60
2021/08/24 00:15:05;;;;;;;5.32;2.80;;;21.20;79.10;;;;;;5041725;28;20071;-59
2021/08/24 00:17:30;;;;;;;4.07;3.00;;;21.20;79.20;;;;;;5041842;28;20076;-59
2021/08/24 00:19:56;;;;;;;3.58;2.80;;;21.20;79.20;;;;;;5051108;28;20120;-59
2021/08/24 00:22:21;;;;;;;3.97;2.72;;;21.20;79.30;;;;;;5047043;28;21027;-59
2021/08/24 00:24:47;;;;;;;3.28;2.63;;;21.20;79.30;;;;;;5050085;28;20502;-59
2021/08/24 00:27:12;;;;;;;7.57;3.45;;;21.20;79.40;;;;;;5029201;28;20041;-60
2021/08/24 00:29:38;;;;;;;5.70;2.70;;;21.30;79.60;;;;;;5044790;28;20117;-59
2021/08/24 00:32:04;;;;;;;6.22;2.70;;;21.20;79.50;;;;;;5044552;28;20087;-59
2021/08/24 00:34:29;;;;;;;6.38;2.95;;;21.10;79.50;;;;;;5039902;28;20040;-60
2021/08/24 00:36:54;;;;;;;7.10;2.70;;;21.10;79.60;;;;;;5049321;28;20029;-60
2021/08/24 00:39:20;;;;;;;7.95;2.88;;;21.10;79.60;;;;;;5064401;28;20050;-60
2021/08/24 00:41:45;;;;;;;5.22;3.55;;;21.10;79.60;;;;;;5044403;28;20395;-60
2021/08/24 00:44:11;;;;;;;4.63;2.97;;;21.10;79.80;;;;;;5042180;28;20106;-59
2021/08/24 00:46:40;;;;;;;6.55;4.00;;;21.00;79.80;;;;;;5047231;28;20044;-60
2021/08/24 00:49:13;;;;;;;5.20;3.30;;;21.10;79.90;;;;;;5045492;28;21076;-60
2021/08/24 00:51:39;;;;;;;7.63;4.20;;;21.10;80.00;;;;;;5023068;28;20059;-60
2021/08/24 00:54:07;;;;;;;4.40;3.80;;;21.00;80.00;;;;;;5039586;28;20115;-59
2021/08/24 00:56:32;;;;;;;6.65;4.00;;;21.00;80.00;;;;;;5029423;28;20329;-59
2021/08/24 00:58:58;;;;;;;7.30;3.67;;;21.00;80.10;;;;;;5012711;28;20016;-59
2021/08/24 01:01:24;;;;;;;3.70;2.88;;;21.00;80.20;;;;;;5044617;28;20036;-59
2021/08/24 01:03:49;;;;;;;6.90;3.10;;;21.00;80.20;;;;;;5037204;28;20052;-60
2021/08/24 01:06:42;;;;;;;3.85;3.00;;;21.00;80.20;;;;;;5021263;28;20361;-59
2021/08/24 01:09:46;;;;;;;4.45;3.05;;;20.90;80.20;;;;;;5047921;28;20036;-59
2021/08/24 01:12:21;;;;;;;4.70;3.03;;;20.90;80.20;;;;;;5050366;28;20028;-59
2021/08/24 01:14:59;;;;;;;6.78;2.92;;;20.90;80.20;;;;;;5038650;28;20028;-60
2021/08/24 01:17:29;;;;;;;5.88;2.92;;;20.90;80.30;;;;;;5041589;28;20527;-60
2021/08/24 01:20:22;;;;;;;3.30;2.60;;;20.90;80.40;;;;;;5034148;28;20052;-60
2021/08/24 01:23:06;;;;;;;3.30;2.97;;;20.90;80.40;;;;;;5068004;28;20045;-60
2021/08/24 01:25:42;;;;;;;3.22;2.75;;;20.90;80.40;;;;;;5026738;28;20047;-59
2021/08/24 01:28:07;;;;;;;4.60;3.00;;;20.90;80.50;;;;;;5050291;28;20028;-59
2021/08/24 01:31:12;;;;;;;3.00;2.70;;;20.90;80.40;;;;;;5060193;28;20553;-58
2021/08/24 01:34:06;;;;;;;5.95;2.80;;;20.80;80.40;;;;;;5043480;28;20051;-59
2021/08/24 01:36:33;;;;;;;3.40;2.40;;;20.90;80.50;;;;;;5045902;28;20021;-60
2021/08/24 01:39:25;;;;;;;3.40;3.03;;;20.80;80.50;;;;;;5026189;28;20149;-60
2021/08/24 01:42:09;;;;;;;4.30;3.42;;;20.80;80.50;;;;;;4997968;28;20460;-60
2021/08/24 01:44:56;;;;;;;5.57;4.22;;;20.80;80.60;;;;;;5056784;28;20056;-60
2021/08/24 01:47:35;;;;;;;8.45;5.00;;;20.80;80.60;;;;;;5029150;28;20543;-61
2021/08/24 01:50:20;;;;;;;5.45;4.03;;;20.80;80.60;;;;;;5019176;28;20436;-60
2021/08/24 01:53:11;;;;;;;4.07;3.67;;;20.80;80.60;;;;;;5009662;28;20029;-61
2021/08/24 01:55:44;;;;;;;5.53;3.70;;;20.80;80.70;;;;;;5041294;28;20021;-61
2021/08/24 01:58:19;;;;;;;4.43;3.97;;;20.70;80.60;;;;;;5030933;28;20166;-60
2021/08/24 02:00:47;;;;;;;4.93;3.85;;;20.70;80.60;;;;;;5043791;28;20110;-60
2021/08/24 02:03:13;;;;;;;4.50;3.45;;;20.70;80.60;;;;;;5017053;28;20391;-60
2021/08/24 02:05:56;;;;;;;4.70;3.60;;;20.70;80.70;;;;;;5029246;28;20170;-60
2021/08/24 02:08:23;;;;;;;4.32;3.83;;;20.70;80.60;;;;;;5043946;28;20116;-60
2021/08/24 02:10:54;;;;;;;5.72;3.50;;;20.70;80.70;;;;;;5029519;28;20059;-60
2021/08/24 02:13:19;;;;;;;5.07;3.47;;;20.70;80.70;;;;;;5027897;28;20063;-60
2021/08/24 02:15:48;;;;;;;4.57;3.08;;;20.70;80.70;;;;;;5036795;28;20052;-60
2021/08/24 02:18:15;;;;;;;4.03;2.97;;;20.70;80.70;;;;;;5026414;28;20078;-61
2021/08/24 02:20:51;;;;;;;4.50;3.10;;;20.70;80.70;;;;;;5025997;28;20032;-60
2021/08/24 02:23:23;;;;;;;6.70;3.33;;;20.70;80.80;;;;;;5049476;28;20135;-60
2021/08/24 02:25:48;;;;;;;3.20;2.60;;;20.60;80.70;;;;;;5046359;28;20035;-60
2021/08/24 02:28:22;;;;;;;4.80;3.47;;;20.60;80.70;;;;;;5030642;28;20410;-60
2021/08/24 02:30:56;;;;;;;3.25;2.78;;;20.60;80.70;;;;;;5045528;28;20085;-61
2021/08/24 02:33:21;;;;;;;2.88;2.67;;;20.60;80.60;;;;;;5023805;28;20020;-60
2021/08/24 02:35:51;;;;;;;3.67;2.95;;;20.60;80.60;;;;;;5024796;28;20090;-60
2021/08/24 02:38:19;;;;;;;5.47;2.88;;;20.60;80.50;;;;;;5044798;28;20036;-60
2021/08/24 02:40:58;;;;;;;3.63;2.67;;;20.60;80.50;;;;;;5060475;28;20036;-60
2021/08/24 02:43:42;;;;;;;3.72;2.85;;;20.50;80.50;;;;;;5043605;28;20021;-60
2021/08/24 02:46:13;;;;;;;3.13;2.60;;;20.50;80.50;;;;;;5010992;28;20031;-60
2021/08/24 02:48:40;;;;;;;2.47;2.08;;;20.50;80.40;;;;;;5027549;28;20085;-61
2021/08/24 02:51:06;;;;;;;3.63;2.83;;;20.50;80.40;;;;;;5023395;28;20173;-61
2021/08/24 02:53:32;;;;;;;3.25;2.67;;;20.50;80.40;;;;;;5028029;28;20028;-61
2021/08/24 02:55:57;;;;;;;2.45;2.13;;;20.40;80.20;;;;;;5003515;28;20029;-60
2021/08/24 02:58:23;;;;;;;5.43;2.60;;;20.40;80.10;;;;;;5025355;28;20343;-60
2021/08/24 03:00:48;;;;;;;7.95;2.70;;;20.40;80.00;;;;;;5042700;28;20439;-60
2021/08/24 03:03:15;;;;;;;3.00;2.22;;;20.40;79.90;;;;;;5030537;28;20043;-60
2021/08/24 03:05:40;;;;;;;2.55;2.20;;;20.40;79.80;;;;;;5025870;28;20074;-60
2021/08/24 03:08:06;;;;;;;2.80;2.15;;;20.30;79.70;;;;;;5015510;28;20094;-61
2021/08/24 03:10:33;;;;;;;3.40;2.53;;;20.30;79.60;;;;;;5035486;28;20104;-60
2021/08/24 03:13:11;;;;;;;3.50;2.40;;;20.30;79.40;;;;;;5020220;28;20036;-60
2021/08/24 03:15:47;;;;;;;5.32;2.40;;;20.30;79.30;;;;;;5054824;28;20107;-60
2021/08/24 03:18:19;;;;;;;3.55;1.95;;;20.30;79.20;;;;;;5041286;28;20063;-60
2021/08/24 03:20:46;;;;;;;3.42;2.70;;;20.30;79.20;;;;;;5022311;28;20032;-60
2021/08/24 03:23:12;;;;;;;4.15;2.85;;;20.30;79.10;;;;;;5028699;28;20055;-60
2021/08/24 03:25:39;;;;;;;3.10;2.50;;;20.30;79.00;;;;;;5045671;28;20344;-61
2021/08/24 03:28:17;;;;;;;4.00;2.65;;;20.30;78.90;;;;;;5024198;28;20126;-60
2021/08/24 03:30:42;;;;;;;2.47;2.28;;;20.20;78.90;;;;;;5028137;28;20028;-60
2021/08/24 03:33:08;;;;;;;2.90;2.50;;;20.20;78.70;;;;;;5039795;28;20024;-60
2021/08/24 03:35:34;;;;;;;4.22;2.70;;;20.20;78.70;;;;;;5040930;28;20048;-61
2021/08/24 03:37:59;;;;;;;4.32;2.28;;;20.20;78.60;;;;;;5038183;28;20029;-60
2021/08/24 03:40:25;;;;;;;2.63;2.42;;;20.20;78.60;;;;;;5059259;28;20107;-60
2021/08/24 03:42:50;;;;;;;2.63;2.40;;;20.20;78.50;;;;;;5032541;28;20057;-60
2021/08/24 03:45:16;;;;;;;7.82;3.00;;;20.20;78.40;;;;;;5035215;28;20024;-60
2021/08/24 03:47:41;;;;;;;9.52;3.22;;;20.20;78.40;;;;;;5046025;28;20028;-60
2021/08/24 03:50:08;;;;;;;12.25;3.38;;;20.10;78.20;;;;;;5051308;28;20488;-61
2021/08/24 03:52:33;;;;;;;19.35;3.75;;;20.10;78.20;;;;;;5046738;28;20032;-60
2021/08/24 03:54:59;;;;;;;24.48;4.00;;;20.10;78.20;;;;;;5036745;28;20048;-60
2021/08/24 03:57:24;;;;;;;26.23;3.70;;;20.10;78.10;;;;;;5038830;28;20040;-60
2021/08/24 03:59:54;;;;;;;17.60;4.32;;;20.10;78.00;;;;;;5041646;28;20393;-60
2021/08/24 04:02:20;;;;;;;57.35;6.60;;;20.10;78.00;;;;;;5027992;28;20025;-61
2021/08/24 04:04:45;;;;;;;55.97;5.72;;;20.10;78.00;;;;;;5047333;28;20037;-60
2021/08/24 04:07:11;;;;;;;48.78;5.70;;;20.10;78.00;;;;;;5041516;28;20148;-60
2021/08/24 04:09:36;;;;;;;34.00;5.03;;;20.10;78.00;;;;;;5024194;28;20029;-60
2021/08/24 04:12:02;;;;;;;35.35;5.13;;;20.10;78.00;;;;;;5048867;28;20122;-60
2021/08/24 04:14:27;;;;;;;40.35;4.88;;;20.10;77.80;;;;;;5014209;28;20027;-60
2021/08/24 04:16:53;;;;;;;24.20;3.78;;;20.10;77.80;;;;;;5058927;28;20419;-60
2021/08/24 04:19:19;;;;;;;38.85;5.13;;;20.00;77.70;;;;;;5028686;28;20036;-60
2021/08/24 04:21:44;;;;;;;27.55;3.60;;;20.00;77.80;;;;;;5042659;28;20051;-60
2021/08/24 04:24:10;;;;;;;26.55;3.30;;;20.00;77.70;;;;;;5046041;28;20024;-61
2021/08/24 04:26:35;;;;;;;22.30;3.83;;;20.00;77.70;;;;;;5030124;28;20028;-60
2021/08/24 04:29:01;;;;;;;14.70;3.35;;;20.00;77.70;;;;;;5044129;28;20108;-60
2021/08/24 04:31:29;;;;;;;17.23;3.13;;;20.00;77.80;;;;;;5043693;28;20035;-60
2021/08/24 04:33:55;;;;;;;18.15;3.35;;;19.90;77.70;;;;;;5007092;28;20487;-61
2021/08/24 04:36:22;;;;;;;19.30;3.53;;;19.90;77.70;;;;;;5029057;28;20033;-60
2021/08/24 04:38:47;;;;;;;16.80;3.55;;;19.90;77.80;;;;;;5046050;28;20028;-60
2021/08/24 04:41:13;;;;;;;23.67;3.88;;;19.90;77.90;;;;;;5046091;28;20028;-61
2021/08/24 04:43:38;;;;;;;17.38;3.97;;;19.90;78.70;;;;;;5037250;28;20090;-60
2021/08/24 04:46:04;;;;;;;18.38;3.75;;;19.90;78.10;;;;;;5049443;28;20499;-60
2021/08/24 04:48:30;;;;;;;21.45;4.20;;;19.90;78.10;;;;;;5027581;28;20048;-60
2021/08/24 04:50:55;;;;;;;24.67;4.28;;;19.90;78.10;;;;;;5046001;28;20079;-60
2021/08/24 04:53:22;;;;;;;17.05;3.50;;;19.90;78.20;;;;;;5041371;28;20060;-60
2021/08/24 04:55:48;;;;;;;26.48;3.80;;;19.90;78.10;;;;;;5027314;28;20032;-61
2021/08/24 04:58:13;;;;;;;21.17;3.90;;;19.90;78.20;;;;;;5053408;28;20039;-60
2021/08/24 05:00:39;;;;;;;24.48;3.65;;;19.90;78.10;;;;;;5025244;28;20029;-60
2021/08/24 05:03:04;;;;;;;61.45;6.85;;;19.90;78.10;;;;;;5040396;28;20115;-61
2021/08/24 05:05:30;;;;;;;38.05;4.47;;;19.80;78.10;;;;;;5045639;28;20035;-60
2021/08/24 05:07:55;;;;;;;33.97;4.05;;;19.90;78.10;;;;;;5036167;28;20116;-61
2021/08/24 05:10:21;;;;;;;15.63;3.63;;;19.80;78.20;;;;;;5042598;28;20040;-60
2021/08/24 05:12:47;;;;;;;24.08;4.07;;;19.80;78.30;;;;;;5037934;28;20115;-60
2021/08/24 05:15:12;;;;;;;19.02;3.80;;;19.80;78.30;;;;;;5024868;28;20111;-60
2021/08/24 05:17:38;;;;;;;20.58;3.05;;;19.80;78.30;;;;;;5035765;28;20416;-60
2021/08/24 05:20:04;;;;;;;18.45;2.88;;;19.80;78.50;;;;;;5048194;28;20024;-60
2021/08/24 05:22:29;;;;;;;15.88;2.53;;;19.80;78.50;;;;;;5028588;28;20052;-60
2021/08/24 05:24:55;;;;;;;13.00;3.05;;;19.70;78.50;;;;;;5031226;28;20116;-60
2021/08/24 05:27:21;;;;;;;18.38;3.05;;;19.70;78.50;;;;;;5044580;28;20037;-60
2021/08/24 05:29:47;;;;;;;10.98;3.03;;;19.70;78.60;;;;;;5024531;28;20541;-60
2021/08/24 05:32:13;;;;;;;7.88;2.20;;;19.70;78.50;;;;;;5052634;28;20040;-60
2021/08/24 05:34:38;;;;;;;7.32;2.67;;;19.70;78.50;;;;;;5031052;28;20020;-59
2021/08/24 05:37:05;;;;;;;7.57;2.67;;;19.70;78.50;;;;;;5026999;28;20087;-60
2021/08/24 05:39:31;;;;;;;13.38;2.80;;;19.70;78.50;;;;;;5050501;28;20048;-60
2021/08/24 05:41:57;;;;;;;15.65;2.33;;;19.70;78.50;;;;;;5046939;28;20080;-60
2021/08/24 05:44:22;;;;;;;10.02;2.75;;;19.70;78.50;;;;;;5025119;28;20076;-60
2021/08/24 05:46:48;;;;;;;9.77;2.25;;;19.70;78.40;;;;;;5043623;28;20539;-60
2021/08/24 05:49:13;;;;;;;8.77;1.98;;;19.70;78.40;;;;;;5027347;28;20108;-60
2021/08/24 05:51:39;;;;;;;9.77;2.15;;;19.70;78.40;;;;;;5025906;28;20425;-60
2021/08/24 05:54:04;;;;;;;11.68;2.40;;;19.60;78.30;;;;;;5014816;28;20358;-61
2021/08/24 05:56:30;;;;;;;11.23;2.25;;;19.70;78.30;;;;;;5041739;28;20244;-60
2021/08/24 05:58:56;;;;;;;4.25;2.20;;;19.60;78.20;;;;;;5068468;28;20025;-60
2021/08/24 06:01:24;;;;;;;8.68;1.83;;;19.60;78.10;;;;;;5052408;28;20369;-60
2021/08/24 06:03:49;;;;;;;3.90;1.85;;;19.70;78.10;;;;;;5034210;28;20475;-60
2021/08/24 06:06:24;;;;;;;4.35;2.13;;;19.60;78.00;;;;;;5037202;28;21084;-60
2021/08/24 06:08:49;;;;;;;5.75;1.63;;;19.60;78.00;;;;;;5046694;28;20032;-60
2021/08/24 06:11:23;;;;;;;6.20;1.60;;;19.60;78.00;;;;;;5044723;28;20057;-60
2021/08/24 06:13:48;;;;;;;5.82;1.90;;;19.60;78.00;;;;;;5045105;28;20024;-60
2021/08/24 06:16:14;;;;;;;3.28;1.63;;;19.60;77.90;;;;;;5042989;28;20025;-60
2021/08/24 06:18:40;;;;;;;4.93;1.60;;;19.60;77.90;;;;;;5043476;28;20043;-60
2021/08/24 06:21:06;;;;;;;4.18;1.50;;;19.60;77.80;;;;;;5046609;28;20028;-60
2021/08/24 06:23:31;;;;;;;3.95;1.83;;;19.60;77.80;;;;;;5048880;28;20029;-60
2021/08/24 06:25:57;;;;;;;3.53;1.40;;;19.50;77.70;;;;;;5014155;28;20085;-60
2021/08/24 06:28:22;;;;;;;3.88;1.17;;;19.50;77.80;;;;;;5036706;28;20365;-60
2021/08/24 06:30:48;;;;;;;4.03;1.20;;;19.50;77.90;;;;;;5011735;28;20048;-60
2021/08/24 06:33:13;;;;;;;2.35;1.50;;;19.50;77.90;;;;;;5064967;28;20020;-60
2021/08/24 06:35:39;;;;;;;4.35;1.77;;;19.50;77.90;;;;;;5045815;28;20036;-60
2021/08/24 06:38:04;;;;;;;8.20;1.45;;;19.50;78.10;;;;;;5015918;28;20043;-60
2021/08/24 06:40:30;;;;;;;5.00;1.30;;;19.50;78.10;;;;;;5047598;28;20074;-60
2021/08/24 06:42:55;;;;;;;5.72;1.50;;;19.50;78.10;;;;;;5043651;28;20107;-60
2021/08/24 06:45:28;;;;;;;5.72;1.38;;;19.50;78.10;;;;;;5026930;28;20037;-60
2021/08/24 06:47:54;;;;;;;2.90;1.38;;;19.50;78.00;;;;;;5041330;28;20105;-60
2021/08/24 06:50:20;;;;;;;3.45;1.58;;;19.40;78.00;;;;;;5027277;28;20468;-60
2021/08/24 06:52:45;;;;;;;9.05;1.83;;;19.40;78.00;;;;;;5029886;28;20040;-60
2021/08/24 06:55:12;;;;;;;9.27;1.60;;;19.40;78.10;;;;;;5034384;28;20294;-61
2021/08/24 06:57:38;;;;;;;13.48;2.20;;;19.40;78.00;;;;;;5034931;28;20479;-60
2021/08/24 07:00:05;;;;;;;20.85;3.08;;;19.40;78.00;;;;;;5045789;28;20039;-60
2021/08/24 07:02:30;;;;;;;35.55;3.35;;;19.40;78.10;;;;;;5028983;28;20702;-61
2021/08/24 07:04:56;;;;;;;14.13;3.17;;;19.40;78.20;;;;;;5065558;28;20251;-61
2021/08/24 07:07:22;;;;;;;13.45;2.50;;;19.40;78.20;;;;;;5009629;28;20114;-60
2021/08/24 07:09:48;;;;;;;15.38;2.65;;;19.40;78.20;;;;;;5058529;28;20082;-60
2021/08/24 07:12:13;;;;;;;236.18;20.63;;;19.30;78.80;;;;;;5041624;28;20024;-60
2021/08/24 07:14:39;;;;;;;28.85;3.58;;;19.10;79.30;;;;;;5008979;28;20434;-60
2021/08/24 07:17:04;;;;;;;4.80;1.95;;;19.00;79.70;;;;;;5044538;28;20051;-60
2021/08/24 07:19:30;;;;;;;4.38;1.70;;;18.90;79.90;;;;;;5019964;28;20032;-61
2021/08/24 07:21:55;;;;;;;7.45;2.00;;;18.80;80.40;;;;;;5045042;28;20028;-60
2021/08/24 07:24:21;;;;;;;5.75;1.92;;;18.60;80.70;;;;;;5056557;28;20453;-60
2021/08/24 07:26:48;;;;;;;2.35;1.50;;;18.60;81.40;;;;;;5066106;28;20037;-60
2021/08/24 07:29:14;;;;;;;4.50;1.73;;;18.50;81.00;;;;;;5033370;28;20032;-60
2021/08/24 07:31:40;;;;;;;2.60;1.83;;;18.50;81.20;;;;;;5045641;28;20093;-60
2021/08/24 07:34:06;;;;;;;3.17;1.70;;;18.40;82.00;;;;;;5045851;28;20075;-60
2021/08/24 07:36:32;;;;;;;5.78;1.80;;;18.40;81.60;;;;;;5027940;28;20071;-60
2021/08/24 07:38:57;;;;;;;5.18;1.58;;;18.40;81.80;;;;;;5046306;28;20483;-60
2021/08/24 07:41:23;;;;;;;2.88;1.65;;;18.30;81.90;;;;;;5032482;28;20404;-60
2021/08/24 07:43:48;;;;;;;7.20;1.80;;;18.30;82.00;;;;;;5026662;28;20281;-60
2021/08/24 07:46:14;;;;;;;3.83;1.63;;;18.30;82.10;;;;;;5059887;28;20037;-60
2021/08/24 07:48:39;;;;;;;4.30;1.80;;;18.30;82.30;;;;;;5028641;28;20060;-60
2021/08/24 07:51:05;;;;;;;3.33;1.60;;;18.30;82.50;;;;;;5046325;28;20086;-60
2021/08/24 07:53:30;;;;;;;3.67;1.40;;;18.20;82.40;;;;;;5064065;28;20073;-60
2021/08/24 07:55:57;;;;;;;8.73;1.83;;;18.20;82.40;;;;;;5045096;28;20016;-60
2021/08/24 07:58:23;;;;;;;5.95;2.05;;;18.20;82.50;;;;;;5027488;28;20027;-60
2021/08/24 08:00:48;;;;;;;4.85;2.00;;;18.20;82.50;;;;;;5046671;28;20147;-60
2021/08/24 08:03:14;;;;;;;11.02;2.47;;;18.20;82.70;;;;;;5028496;28;20162;-61
2021/08/24 08:05:39;;;;;;;22.95;3.78;;;18.20;82.70;;;;;;5024838;28;20028;-60
2021/08/24 08:08:05;;;;;;;7.30;2.63;;;18.20;82.80;;;;;;5045248;28;20020;-60
2021/08/24 08:10:31;;;;;;;10.05;2.30;;;18.20;82.80;;;;;;5047836;28;20020;-60
2021/08/24 08:12:56;;;;;;;7.72;2.08;;;18.30;83.00;;;;;;5048618;28;20128;-60
2021/08/24 08:15:23;;;;;;;10.40;1.85;;;18.30;82.90;;;;;;5041363;28;20045;-60
2021/08/24 08:17:48;;;;;;;6.38;1.95;;;18.20;82.80;;;;;;5016494;28;21392;-60
2021/08/24 08:20:14;;;;;;;13.95;1.85;;;18.30;82.90;;;;;;5030173;28;20036;-60
2021/08/24 08:22:41;;;;;;;6.68;1.90;;;18.30;82.80;;;;;;5046000;28;20029;-60
2021/08/24 08:25:07;;;;;;;9.57;2.00;;;18.30;82.80;;;;;;5025818;28;20400;-60
2021/08/24 08:27:33;;;;;;;6.15;2.00;;;18.30;82.90;;;;;;5060317;28;20028;-61
2021/08/24 08:29:58;;;;;;;8.10;2.17;;;18.20;82.80;;;;;;5063048;28;20496;-60
2021/08/24 08:32:26;;;;;;;4.30;2.17;;;18.20;82.80;;;;;;5040225;28;20048;-60
2021/08/24 08:34:52;;;;;;;4.28;1.98;;;18.30;82.80;;;;;;5029126;28;20283;-60
2021/08/24 08:37:18;;;;;;;5.68;2.05;;;18.20;82.70;;;;;;5044733;28;20029;-60
2021/08/24 08:39:43;;;;;;;7.88;2.10;;;18.20;82.70;;;;;;5023532;28;20060;-60
2021/08/24 08:42:37;;;;;;;6.07;2.30;;;18.40;82.80;;;;;;5045114;28;20035;-60
2021/08/24 08:45:17;;;;;;;10.55;2.28;;;18.30;82.70;;;;;;5066151;28;20052;-60
2021/08/24 08:47:50;;;;;;;9.45;2.00;;;18.30;83.40;;;;;;5034636;28;20036;-60
2021/08/24 08:50:39;;;;;;;5.20;1.80;;;18.30;82.50;;;;;;5045616;28;20097;-60
2021/08/24 08:53:31;;;;;;;12.75;2.40;;;18.30;82.40;;;;;;5048830;28;20039;-60
2021/08/24 08:56:06;;;;;;;10.27;1.83;;;18.30;82.30;;;;;;5046001;28;20582;-61
2021/08/24 08:58:40;;;;;;;7.20;2.10;;;18.40;82.40;;;;;;5062900;28;20062;-60
2021/08/24 09:01:33;;;;;;;17.45;2.92;;;18.40;82.60;;;;;;5032795;28;20032;-60
2021/08/24 09:04:15;;;;;;;60.28;6.57;;;18.40;82.70;;;;;;5064432;28;20328;-60
2021/08/24 09:06:40;;;;;;;40.60;5.57;;;18.40;83.50;;;;;;5023477;28;20028;-60
2021/08/24 09:09:08;;;;;;;42.90;4.88;;;18.40;82.80;;;;;;5025379;28;20060;-60
2021/08/24 09:11:36;;;;;;;11.77;3.15;;;18.40;82.90;;;;;;5058221;28;20092;-60
2021/08/24 09:14:07;;;;;;;10.85;2.42;;;18.40;82.50;;;;;;5026958;28;20036;-60
2021/08/24 09:16:36;;;;;;;20.08;2.80;;;18.40;82.40;;;;;;5044222;28;20408;-60
2021/08/24 09:19:08;;;;;;;10.73;2.95;;;18.40;82.60;;;;;;5026483;28;20119;-60
2021/08/24 09:21:40;;;;;;;21.65;2.70;;;18.40;82.70;;;;;;5029693;28;20429;-60
2021/08/24 09:24:26;;;;;;;11.05;3.00;;;18.30;82.70;;;;;;5040292;28;20033;-60
2021/08/24 09:26:59;;;;;;;21.65;3.17;;;18.30;82.80;;;;;;5030196;28;20024;-60
2021/08/24 09:29:34;;;;;;;11.20;3.13;;;18.30;82.80;;;;;;5071365;28;20055;-60
2021/08/24 09:32:02;;;;;;;46.00;4.70;;;18.30;82.90;;;;;;5063857;28;20354;-60
2021/08/24 09:34:28;;;;;;;20.45;3.15;;;18.30;83.00;;;;;;5013684;28;20126;-60
2021/08/24 09:36:54;;;;;;;20.05;3.25;;;18.30;82.90;;;;;;5007972;28;20108;-60
2021/08/24 09:39:56;;;;;;;9.63;2.80;;;18.30;83.10;;;;;;5029339;28;20036;-60
2021/08/24 09:42:29;;;;;;;21.83;4.55;;;18.30;83.10;;;;;;5045244;28;20387;-60
2021/08/24 09:44:55;;;;;;;10.57;3.35;;;18.40;83.10;;;;;;5061468;28;20048;-60
2021/08/24 09:47:21;;;;;;;9.48;3.63;;;18.40;83.00;;;;;;5042470;28;20721;-60
2021/08/24 09:49:47;;;;;;;4.45;2.25;;;18.40;83.40;;;;;;5039401;28;20036;-60
2021/08/24 09:52:23;;;;;;;15.93;3.05;;;18.40;82.70;;;;;;5023009;28;20043;-60
2021/08/24 09:54:49;;;;;;;13.15;3.72;;;18.40;82.90;;;;;;5021900;28;20020;-60
2021/08/24 09:57:32;;;;;;;13.10;3.25;;;18.40;83.00;;;;;;5060093;28;20079;-60
2021/08/24 10:00:24;;;;;;;22.13;3.25;;;18.40;83.00;;;;;;5042409;28;20040;-60
2021/08/24 10:02:52;;;;;;;14.77;2.88;;;18.40;83.10;;;;;;5058759;28;20058;-60
2021/08/24 10:05:21;;;;;;;7.18;2.97;;;18.40;82.90;;;;;;5026322;28;20059;-60
2021/08/24 10:07:47;;;;;;;16.75;3.85;;;18.40;82.90;;;;;;5059781;28;20060;-60
2021/08/24 10:10:22;;;;;;;11.10;3.30;;;18.40;82.80;;;;;;5024798;28;20013;-60
2021/08/24 10:12:51;;;;;;;21.85;4.60;;;18.40;82.90;;;;;;5008556;28;20040;-60
2021/08/24 10:15:30;;;;;;;13.10;3.10;;;18.50;82.80;;;;;;5043488;28;20035;-60
2021/08/24 10:18:07;;;;;;;19.25;4.47;;;18.40;82.60;;;;;;5005847;28;1136934;-60
2021/08/24 10:20:52;;;;;;;33.83;5.07;;;18.40;82.70;;;;;;5026526;28;20031;-60
2021/08/24 10:23:28;;;;;;;17.20;4.28;;;18.40;82.90;;;;;;5027506;28;20036;-60
2021/08/24 10:25:56;;;;;;;17.90;4.18;;;18.40;82.90;;;;;;5037009;28;20130;-60
2021/08/24 10:28:26;;;;;;;10.90;3.50;;;18.50;83.00;;;;;;5021335;28;20033;-60
2021/08/24 10:30:55;;;;;;;12.02;3.47;;;18.40;82.90;;;;;;5025749;28;20028;-60
2021/08/24 10:33:29;;;;;;;9.13;3.38;;;18.40;82.90;;;;;;5026795;28;20077;-60
2021/08/24 10:36:06;;;;;;;20.33;3.88;;;18.30;82.90;;;;;;5043836;28;20039;-60
2021/08/24 10:38:43;;;;;;;18.67;4.15;;;18.40;83.20;;;;;;5042128;28;20538;-60
2021/08/24 10:41:32;;;;;;;16.48;4.03;;;18.30;83.30;;;;;;5028150;28;20340;-60
2021/08/24 10:44:00;;;;;;;14.35;3.70;;;18.40;83.40;;;;;;5043809;28;20056;-60
2021/08/24 10:46:26;;;;;;;21.02;4.65;;;18.40;83.40;;;;;;5027805;28;20143;-60
2021/08/24 10:48:51;;;;;;;22.83;4.28;;;18.30;83.30;;;;;;5027111;28;20151;-60
2021/08/24 10:51:32;;;;;;;17.95;4.22;;;18.40;83.40;;;;;;5026643;28;20428;-60
2021/08/24 10:54:10;;;;;;;16.42;3.53;;;18.40;83.40;;;;;;5041893;28;20084;-60
2021/08/24 10:57:09;;;;;;;15.80;3.97;;;18.40;83.30;;;;;;5056552;28;20431;-60
2021/08/24 10:59:46;;;;;;;17.23;3.58;;;18.50;83.10;;;;;;4984184;28;20185;-60
2021/08/24 11:02:31;;;;;;;14.00;3.67;;;18.50;83.20;;;;;;5045154;28;20055;-60
2021/08/24 11:04:57;;;;;;;18.03;3.57;;;18.50;82.90;;;;;;5037230;28;20063;-61
2021/08/24 11:07:36;;;;;;;10.90;2.90;;;18.60;82.80;;;;;;5043114;28;20028;-61
2021/08/24 11:10:10;;;;;;;9.82;3.08;;;18.60;82.40;;;;;;5046396;28;20115;-60
2021/08/24 11:13:13;;;;;;;17.13;3.63;;;18.60;82.90;;;;;;5046267;28;20058;-60
2021/08/24 11:15:43;;;;;;;12.57;3.25;;;18.60;81.90;;;;;;5059365;28;20032;-60
2021/08/24 11:18:42;;;;;;;12.70;3.00;;;18.60;81.60;;;;;;5042144;28;20053;-60
2021/08/24 11:21:37;;;;;;;10.00;2.88;;;18.50;81.30;;;;;;5035489;28;20017;-61
2021/08/24 11:24:08;;;;;;;11.75;3.20;;;18.60;81.30;;;;;;5060924;28;20068;-60
2021/08/24 11:26:54;;;;;;;314.50;31.27;;;18.60;81.30;;;;;;5040403;28;20130;-60
2021/08/24 11:29:35;;;;;;;;;;;18.60;81.50;;;;;;5037881;28;20024;-60
2021/08/24 11:32:06;;;;;;;10.70;3.05;;;18.70;81.20;;;;;;5040913;28;19915;-60
2021/08/24 11:34:39;;;;;;;13.85;2.72;;;18.70;80.80;;;;;;5034885;28;20555;-60
2021/08/24 11:37:17;;;;;;;15.05;3.88;;;18.80;80.60;;;;;;5038233;28;20021;-60
2021/08/24 11:39:44;;;;;;;25.02;5.03;;;18.80;80.30;;;;;;5026723;28;20036;-60
2021/08/24 11:42:10;;;;;;;19.30;3.85;;;18.90;80.20;;;;;;5041215;28;20115;-60
2021/08/24 11:44:50;;;;;;;11.90;3.15;;;18.90;80.10;;;;;;5022388;28;20072;-60
2021/08/24 11:47:16;;;;;;;5.13;2.92;;;18.90;79.70;;;;;;5023542;28;20025;-60
2021/08/24 11:49:49;;;;;;;8.90;2.70;;;18.90;79.40;;;;;;5040265;28;20070;-60
2021/08/24 11:52:28;;;;;;;9.10;2.47;;;19.00;79.40;;;;;;5032059;28;20475;-60
2021/08/24 11:54:58;;;;;;;7.65;2.85;;;19.10;79.20;;;;;;5023973;28;20459;-60
2021/08/24 11:57:28;;;;;;;15.70;3.00;;;19.10;79.00;;;;;;5027122;28;20044;-61
2021/08/24 11:59:54;;;;;;;14.68;2.90;;;19.20;78.90;;;;;;5004503;28;20032;-60
2021/08/24 12:02:23;;;;;;;11.98;3.15;;;19.20;78.80;;;;;;5050376;28;20079;-60
2021/08/24 12:04:49;;;;;;;7.55;2.83;;;19.20;78.60;;;;;;5046458;28;20082;-60
2021/08/24 12:07:34;;;;;;;11.68;3.10;;;19.20;78.60;;;;;;5013933;28;20056;-60
2021/08/24 12:10:16;;;;;;;9.93;3.10;;;19.30;78.90;;;;;;5043862;28;20123;-60
2021/08/24 12:13:04;;;;;;;8.18;3.08;;;19.30;78.80;;;;;;5045170;28;20176;-60
2021/08/24 12:15:41;;;;;;;17.33;3.17;;;19.30;78.40;;;;;;5044062;28;20044;-60
2021/08/24 12:18:19;;;;;;;7.72;2.88;;;19.30;78.40;;;;;;5045130;28;20051;-60
2021/08/24 12:20:56;;;;;;;10.40;3.03;;;19.30;78.70;;;;;;5064316;28;20028;-60
2021/08/24 12:23:35;;;;;;;12.77;3.17;;;19.30;78.80;;;;;;5047881;28;20620;-60
2021/08/24 12:26:21;;;;;;;18.42;3.15;;;19.30;78.80;;;;;;5046397;28;20128;-60
2021/08/24 12:28:47;;;;;;;14.93;3.60;;;19.30;78.70;;;;;;5051632;28;20103;-60
2021/08/24 12:31:23;;;;;;;17.63;3.33;;;19.30;78.70;;;;;;5036338;28;20218;-60
2021/08/24 12:33:48;;;;;;;8.90;2.45;;;19.40;78.70;;;;;;5030813;28;20212;-60
2021/08/24 12:36:16;;;;;;;10.18;2.80;;;19.40;78.40;;;;;;5045949;28;20778;-60
2021/08/24 12:38:55;;;;;;;21.48;3.53;;;19.40;78.40;;;;;;5062589;28;20583;-60
2021/08/24 12:41:36;;;;;;;28.50;4.10;;;19.40;78.60;;;;;;5036441;28;20036;-60
2021/08/24 12:44:13;;;;;;;11.68;3.58;;;19.40;78.60;;;;;;5068786;28;20113;-59
2021/08/24 12:46:46;;;;;;;12.02;3.22;;;19.50;78.60;;;;;;5065515;28;20024;-60
2021/08/24 12:49:19;;;;;;;28.55;4.28;;;19.50;78.50;;;;;;5043456;28;20029;-60
2021/08/24 12:51:52;;;;;;;32.15;4.30;;;19.50;78.40;;;;;;5064632;28;20051;-60
2021/08/24 12:54:19;;;;;;;16.85;3.65;;;19.50;78.30;;;;;;5025624;28;20039;-60
2021/08/24 12:57:04;;;;;;;19.55;3.30;;;19.50;78.10;;;;;;5043159;28;20024;-60
2021/08/24 12:59:31;;;;;;;21.30;3.50;;;19.60;78.10;;;;;;5043907;28;20025;-60